createdAt,value
2018-03-01T00:02:17.452Z,10.00
2018-03-01T00:04:45.937Z,7.37
2018-03-01T00:07:13.513Z,8.00
2018-03-01T00:09:41.076Z,8.07
2018-03-01T00:12:08.619Z,8.37
2018-03-01T00:14:36.162Z,9.47
2018-03-01T00:17:04.488Z,8.90
2018-03-01T00:19:32.034Z,9.73
2018-03-01T00:21:59.618Z,7.77
2018-03-01T00:24:27.190Z,9.53
2018-03-01T00:26:54.738Z,7.27
2018-03-01T00:29:22.308Z,9.53
2018-03-01T00:31:49.888Z,9.70
2018-03-01T00:34:18.221Z,9.13
2018-03-01T00:36:45.757Z,9.83
2018-03-01T00:39:14.237Z,10.03
2018-03-01T00:41:41.874Z,9.17
2018-03-01T00:44:09.414Z,9.03
2018-03-01T00:46:36.981Z,10.80
2018-03-01T00:49:05.297Z,10.60
2018-03-01T00:51:32.840Z,9.20
2018-03-01T00:54:00.412Z,10.37
2018-03-01T00:56:27.965Z,8.97
2018-03-01T00:58:55.516Z,9.03
2018-03-01T01:01:23.092Z,9.53
2018-03-01T01:03:50.654Z,10.73
2018-03-01T01:06:18.206Z,10.07
2018-03-01T01:08:45.780Z,8.00
2018-03-01T01:11:13.356Z,7.90
2018-03-01T01:13:40.944Z,10.63
2018-03-01T01:16:09.248Z,8.50
2018-03-01T01:18:36.806Z,11.43
2018-03-01T01:21:04.426Z,10.00
2018-03-01T01:23:32.774Z,11.57
2018-03-01T01:26:00.372Z,9.73
2018-03-01T01:28:27.961Z,11.77
2018-03-01T01:30:55.520Z,8.00
2018-03-01T01:33:23.154Z,9.77
2018-03-01T01:35:51.489Z,10.80
2018-03-01T01:38:19.032Z,10.80
2018-03-01T01:40:46.608Z,10.07
2018-03-01T01:43:14.190Z,10.40
2018-03-01T01:45:41.781Z,10.83
2018-03-01T01:48:10.090Z,9.47
2018-03-01T01:50:49.505Z,8.57
2018-03-01T01:53:17.070Z,9.53
2018-03-01T01:55:44.607Z,8.23
2018-03-01T01:58:12.926Z,9.80
2018-03-01T02:00:40.485Z,11.10
2018-03-01T02:03:08.060Z,8.83
2018-03-01T02:05:35.642Z,9.67
2018-03-01T02:08:03.189Z,9.20
2018-03-01T02:10:30.771Z,9.20
2018-03-01T02:12:58.392Z,9.23
2018-03-01T02:15:25.931Z,8.77
2018-03-01T02:17:53.451Z,10.17
2018-03-01T02:20:21.756Z,10.03
2018-03-01T02:22:49.279Z,9.50
2018-03-01T02:25:16.779Z,9.40
2018-03-01T02:27:44.304Z,8.57
2018-03-01T02:30:24.488Z,9.83
2018-03-01T02:32:52.014Z,7.43
2018-03-01T02:35:20.316Z,11.83
2018-03-01T02:37:47.840Z,7.33
2018-03-01T02:40:15.361Z,9.33
2018-03-01T02:42:42.880Z,9.77
2018-03-01T02:45:10.403Z,9.60
2018-03-01T02:47:37.904Z,8.43
2018-03-01T02:50:05.443Z,8.70
2018-03-01T02:52:33.735Z,9.80
2018-03-01T02:55:01.253Z,8.40
2018-03-01T02:57:28.770Z,10.30
2018-03-01T02:59:56.294Z,8.43
2018-03-01T03:02:24.577Z,9.47
2018-03-01T03:04:52.862Z,9.97
2018-03-01T03:07:20.383Z,9.27
2018-03-01T03:09:47.923Z,10.43
2018-03-01T03:12:16.206Z,10.57
2018-03-01T03:14:43.751Z,6.10
2018-03-01T03:17:11.275Z,10.43
2018-03-01T03:19:38.791Z,9.03
2018-03-01T03:22:06.338Z,8.60
2018-03-01T03:24:33.856Z,8.27
2018-03-01T03:27:01.360Z,7.53
2018-03-01T03:29:28.911Z,8.17
2018-03-01T03:31:56.426Z,8.37
2018-03-01T03:34:23.962Z,8.43
2018-03-01T03:36:52.256Z,9.20
2018-03-01T03:39:19.787Z,8.77
2018-03-01T03:41:47.291Z,8.30
2018-03-01T03:44:14.834Z,8.53
2018-03-01T03:46:42.379Z,8.50
2018-03-01T03:49:09.900Z,6.67
2018-03-01T03:51:37.421Z,8.03
2018-03-01T03:54:04.924Z,8.50
2018-03-01T03:56:32.481Z,6.47
2018-03-01T03:58:59.987Z,7.33
2018-03-01T04:01:27.507Z,8.87
2018-03-01T04:03:55.028Z,9.27
2018-03-01T04:06:22.531Z,10.10
2018-03-01T04:08:50.799Z,8.57
2018-03-01T04:11:18.337Z,8.17
2018-03-01T04:13:45.900Z,7.93
2018-03-01T04:16:13.443Z,8.97
2018-03-01T04:18:40.965Z,9.37
2018-03-01T04:21:08.484Z,8.73
2018-03-01T04:23:36.052Z,8.90
2018-03-01T04:26:03.565Z,8.23
2018-03-01T04:28:31.072Z,8.57
2018-03-01T04:30:58.596Z,8.40
2018-03-01T04:33:26.913Z,5.97
2018-03-01T04:35:55.193Z,9.40
2018-03-01T04:38:23.477Z,8.30
2018-03-01T04:40:51.758Z,8.63
2018-03-01T04:43:19.263Z,8.17
2018-03-01T04:45:46.876Z,8.80
2018-03-01T04:48:14.405Z,9.07
2018-03-01T04:50:41.911Z,9.40
2018-03-01T04:53:09.452Z,9.57
2018-03-01T04:55:36.982Z,8.53
2018-03-01T04:58:05.202Z,9.37
2018-03-01T05:00:32.723Z,8.90
2018-03-01T05:03:01.019Z,8.30
2018-03-01T05:05:28.546Z,7.80
2018-03-01T05:07:56.848Z,7.60
2018-03-01T05:10:24.396Z,8.67
2018-03-01T05:12:52.955Z,6.90
2018-03-01T05:15:21.090Z,8.77
2018-03-01T05:17:48.612Z,7.50
2018-03-01T05:20:16.147Z,8.37
2018-03-01T05:22:43.659Z,8.97
2018-03-01T05:25:11.173Z,7.37
2018-03-01T05:27:38.707Z,8.27
2018-03-01T05:30:06.242Z,7.73
2018-03-01T05:32:34.515Z,9.03
2018-03-01T05:35:02.038Z,7.10
2018-03-01T05:37:30.326Z,8.37
2018-03-01T05:39:58.615Z,8.30
2018-03-01T05:42:26.163Z,7.37
2018-03-01T05:44:54.477Z,7.30
2018-03-01T05:47:22.024Z,8.37
2018-03-01T05:49:49.572Z,6.50
2018-03-01T05:52:17.877Z,6.83
2018-03-01T05:54:45.427Z,8.67
2018-03-01T05:57:12.955Z,9.53
2018-03-01T05:59:41.285Z,9.67
2018-03-01T06:02:08.974Z,7.50
2018-03-01T06:04:36.525Z,7.93
2018-03-01T06:07:04.405Z,6.57
2018-03-01T06:09:31.943Z,8.00
2018-03-01T06:11:59.479Z,8.57
2018-03-01T06:14:27.005Z,7.93
2018-03-01T06:16:54.550Z,8.20
2018-03-01T06:19:22.080Z,11.67
2018-03-01T06:21:49.618Z,9.20
2018-03-01T06:24:17.152Z,8.57
2018-03-01T06:26:45.473Z,7.97
2018-03-01T06:29:13.004Z,9.97
2018-03-01T06:31:41.326Z,8.73
2018-03-01T06:34:08.856Z,7.60
2018-03-01T06:36:36.416Z,8.27
2018-03-01T06:39:03.947Z,8.20
2018-03-01T06:41:32.219Z,9.07
2018-03-01T06:43:59.826Z,9.03
2018-03-01T06:46:27.659Z,8.20
2018-03-01T06:48:55.959Z,8.67
2018-03-01T06:51:23.476Z,8.40
2018-03-01T06:53:50.978Z,8.90
2018-03-01T06:56:19.428Z,9.03
2018-03-01T06:58:47.819Z,9.30
2018-03-01T07:01:16.096Z,9.93
2018-03-01T07:03:44.396Z,9.13
2018-03-01T07:06:11.948Z,9.33
2018-03-01T07:08:40.216Z,10.00
2018-03-01T07:11:08.537Z,9.13
2018-03-01T07:13:36.075Z,9.90
2018-03-01T07:16:03.624Z,9.63
2018-03-01T07:18:31.924Z,10.70
2018-03-01T07:20:59.589Z,9.70
2018-03-01T07:23:27.117Z,10.00
2018-03-01T07:25:54.797Z,8.33
2018-03-01T07:28:23.175Z,8.87
2018-03-01T07:30:51.504Z,9.93
2018-03-01T07:33:20.015Z,8.70
2018-03-01T07:35:47.510Z,8.83
2018-03-01T07:38:15.060Z,8.60
2018-03-01T07:40:42.575Z,10.90
2018-03-01T07:43:10.079Z,7.07
2018-03-01T07:45:37.655Z,8.50
2018-03-01T07:48:05.174Z,7.80
2018-03-01T07:50:33.443Z,9.27
2018-03-01T07:53:01.752Z,10.40
2018-03-01T07:55:29.283Z,10.37
2018-03-01T07:57:57.551Z,8.13
2018-03-01T08:00:25.104Z,11.43
2018-03-01T08:02:52.633Z,8.97
2018-03-01T08:05:20.140Z,10.67
2018-03-01T08:07:48.467Z,6.43
2018-03-01T08:10:16.001Z,9.57
2018-03-01T08:12:43.555Z,7.67
2018-03-01T08:15:11.103Z,9.93
2018-03-01T08:17:39.415Z,10.37
2018-03-01T08:20:06.940Z,10.13
2018-03-01T08:22:35.226Z,8.83
2018-03-01T08:25:02.754Z,9.90
2018-03-01T08:27:30.284Z,8.87
2018-03-01T08:29:57.823Z,9.60
2018-03-01T08:32:25.343Z,8.70
2018-03-01T08:34:53.636Z,8.67
2018-03-01T08:37:21.944Z,8.50
2018-03-01T08:39:49.498Z,9.17
2018-03-01T08:42:17.006Z,10.13
2018-03-01T08:44:44.514Z,9.60
2018-03-01T08:47:12.046Z,9.00
2018-03-01T08:49:39.593Z,10.87
2018-03-01T08:52:07.108Z,10.00
2018-03-01T08:54:34.623Z,7.47
2018-03-01T08:57:02.122Z,11.07
2018-03-01T08:59:29.677Z,9.20
2018-03-01T09:01:57.191Z,12.00
2018-03-01T09:04:24.825Z,9.70
2018-03-01T09:06:52.351Z,10.73
2018-03-01T09:09:19.981Z,8.00
2018-03-01T09:11:48.131Z,10.87
2018-03-01T09:14:15.641Z,10.53
2018-03-01T09:16:43.403Z,11.80
2018-03-01T09:19:11.671Z,9.97
2018-03-01T09:21:39.972Z,7.83
2018-03-01T09:24:08.263Z,8.27
2018-03-01T09:26:35.791Z,10.93
2018-03-01T09:29:03.306Z,8.83
2018-03-01T09:31:30.834Z,9.80
2018-03-01T09:33:58.379Z,9.13
2018-03-01T09:36:25.884Z,10.67
2018-03-01T09:38:53.384Z,11.53
2018-03-01T09:41:20.917Z,9.07
2018-03-01T09:43:48.452Z,8.63
2018-03-01T09:46:15.978Z,10.93
2018-03-01T09:48:43.542Z,13.13
2018-03-01T09:51:11.587Z,10.10
2018-03-01T09:53:39.129Z,11.40
2018-03-01T09:56:07.388Z,11.73
2018-03-01T09:58:34.917Z,11.30
2018-03-01T10:01:02.456Z,10.97
2018-03-01T10:03:29.980Z,10.53
2018-03-01T10:05:58.285Z,10.13
2018-03-01T10:08:25.825Z,9.57
2018-03-01T10:10:54.186Z,11.50
2018-03-01T10:13:21.916Z,12.47
2018-03-01T10:15:49.449Z,11.23
2018-03-01T10:18:16.955Z,10.63
2018-03-01T10:20:44.451Z,9.83
2018-03-01T10:23:12.731Z,10.20
2018-03-01T10:25:40.240Z,10.67
2018-03-01T10:28:07.743Z,12.73
2018-03-01T10:30:35.258Z,12.00
2018-03-01T10:33:03.552Z,11.60
2018-03-01T10:35:31.064Z,11.70
2018-03-01T10:37:58.575Z,8.40
2018-03-01T10:40:26.383Z,10.13
2018-03-01T10:42:54.109Z,8.77
2018-03-01T10:45:22.387Z,10.30
2018-03-01T10:47:50.765Z,10.07
2018-03-01T10:50:19.077Z,8.07
2018-03-01T10:52:46.727Z,9.93
2018-03-01T10:55:15.397Z,9.37
2018-03-01T10:57:43.688Z,10.23
2018-03-01T11:00:11.270Z,11.07
2018-03-01T11:02:38.811Z,10.10
2018-03-01T11:05:06.333Z,9.60
2018-03-01T11:07:34.636Z,9.33
2018-03-01T11:10:02.920Z,8.77
2018-03-01T11:12:30.441Z,8.20
2018-03-01T11:14:58.952Z,9.77
2018-03-01T11:17:26.458Z,9.03
2018-03-01T11:19:53.951Z,9.00
2018-03-01T11:22:22.254Z,9.37
2018-03-01T11:24:49.784Z,7.87
2018-03-01T11:27:18.095Z,8.63
2018-03-01T11:29:45.623Z,7.97
2018-03-01T11:32:13.893Z,8.83
2018-03-01T11:34:42.251Z,7.63
2018-03-01T11:37:09.730Z,8.20
2018-03-01T11:39:38.016Z,7.50
2018-03-01T11:42:06.317Z,8.43
2018-03-01T11:44:33.838Z,11.40
2018-03-01T11:47:02.099Z,10.10
2018-03-01T11:49:29.633Z,11.67
2018-03-01T11:51:57.899Z,12.13
2018-03-01T11:54:25.409Z,9.70
2018-03-01T11:56:52.980Z,10.87
2018-03-01T11:59:20.541Z,11.90
2018-03-01T12:01:48.079Z,10.50
2018-03-01T12:04:16.377Z,11.50
2018-03-01T12:06:43.921Z,11.53
2018-03-01T12:09:12.211Z,12.03
2018-03-01T12:11:39.760Z,10.80
2018-03-01T12:14:08.050Z,9.97
2018-03-01T12:16:35.551Z,12.03
2018-03-01T12:19:03.064Z,10.73
2018-03-01T12:21:30.576Z,11.03
2018-03-01T12:23:58.070Z,11.20
2018-03-01T12:26:26.380Z,9.40
2018-03-01T12:28:53.866Z,9.67
2018-03-01T12:31:21.351Z,9.20
2018-03-01T12:33:49.616Z,10.20
2018-03-01T12:36:17.132Z,10.27
2018-03-01T12:38:44.648Z,8.63
2018-03-01T12:41:12.930Z,8.87
2018-03-01T12:43:41.200Z,8.37
2018-03-01T12:46:09.518Z,10.20
2018-03-01T12:48:37.040Z,9.43
2018-03-01T12:51:05.327Z,9.97
2018-03-01T12:53:32.837Z,10.47
2018-03-01T12:56:00.361Z,10.70
2018-03-01T12:58:27.885Z,10.97
2018-03-01T13:00:56.199Z,10.50
2018-03-01T13:03:24.815Z,11.60
2018-03-01T13:05:52.339Z,10.67
2018-03-01T13:08:19.871Z,11.37
2018-03-01T13:10:48.149Z,11.47
2018-03-01T13:13:16.450Z,10.57
2018-03-01T13:15:43.994Z,12.83
2018-03-01T13:18:11.534Z,12.53
2018-03-01T13:20:39.833Z,11.00
2018-03-01T13:23:07.943Z,11.40
2018-03-01T13:25:35.460Z,11.20
2018-03-01T13:28:02.980Z,13.50
2018-03-01T13:30:45.398Z,12.00
2018-03-01T13:33:27.540Z,12.63
2018-03-01T13:35:56.948Z,10.53
2018-03-01T13:38:25.058Z,13.30
2018-03-01T13:40:52.569Z,11.53
2018-03-01T13:43:20.108Z,12.97
2018-03-01T13:45:49.063Z,12.13
2018-03-01T13:48:16.716Z,12.73
2018-03-01T13:50:45.378Z,11.27
2018-03-01T13:53:12.947Z,11.50
2018-03-01T13:55:40.444Z,14.03
2018-03-01T13:58:08.318Z,12.13
2018-03-01T14:00:35.849Z,12.17
2018-03-01T14:03:04.392Z,11.30
2018-03-01T14:05:31.923Z,12.37
2018-03-01T14:08:00.442Z,12.73
2018-03-01T14:10:28.043Z,12.20
2018-03-01T14:12:55.706Z,14.83
2018-03-01T14:15:23.645Z,11.80
2018-03-01T14:18:06.976Z,11.17
2018-03-01T14:20:34.475Z,12.90
2018-03-01T14:23:12.732Z,11.77
2018-03-01T14:25:40.302Z,12.87
2018-03-01T14:31:10.642Z,14.27
2018-03-01T14:33:38.452Z,11.80
2018-03-01T14:36:05.955Z,14.53
2018-03-01T14:38:33.607Z,14.23
2018-03-01T14:41:01.889Z,12.67
2018-03-01T14:43:29.471Z,12.53
2018-03-01T14:45:58.754Z,13.10
2018-03-01T14:48:26.285Z,12.47
2018-03-01T14:50:53.799Z,13.87
2018-03-01T14:53:21.315Z,13.83
2018-03-01T14:55:49.608Z,13.07
2018-03-01T14:58:18.077Z,12.17
2018-03-01T15:00:46.545Z,13.87
2018-03-01T15:03:14.089Z,13.77
2018-03-01T15:05:41.608Z,13.87
2018-03-01T15:08:12.971Z,13.63
2018-03-01T15:10:40.500Z,15.50
2018-03-01T15:13:08.835Z,13.53
2018-03-01T15:15:36.372Z,15.83
2018-03-01T15:18:04.745Z,14.97
2018-03-01T15:20:32.294Z,15.60
2018-03-01T15:22:59.797Z,14.93
2018-03-01T15:25:27.309Z,14.40
2018-03-01T15:27:54.820Z,15.80
2018-03-01T15:30:23.103Z,16.60
2018-03-01T15:32:50.688Z,15.93
2018-03-01T15:35:19.971Z,15.67
2018-03-01T15:37:47.553Z,15.60
2018-03-01T15:40:15.101Z,16.97
2018-03-01T15:42:43.371Z,14.77
2018-03-01T15:45:10.948Z,17.00
2018-03-01T15:47:40.211Z,16.07
2018-03-01T15:50:07.798Z,16.70
2018-03-01T15:52:36.074Z,16.83
2018-03-01T15:55:04.392Z,17.27
2018-03-01T15:57:31.971Z,16.13
2018-03-01T15:59:59.478Z,16.40
2018-03-01T16:02:27.754Z,13.90
2018-03-01T16:04:56.068Z,15.83
2018-03-01T16:07:23.610Z,16.70
2018-03-01T16:09:51.126Z,15.70
2018-03-01T16:12:18.615Z,15.30
2018-03-01T16:14:47.980Z,16.13
2018-03-01T16:17:15.513Z,16.83
2018-03-01T16:19:43.044Z,14.87
2018-03-01T16:22:10.572Z,15.77
2018-03-01T16:24:40.583Z,16.53
2018-03-01T16:27:08.092Z,16.93
2018-03-01T16:29:35.594Z,17.10
2018-03-01T16:32:04.087Z,19.33
2018-03-01T16:34:31.631Z,18.63
2018-03-01T16:36:59.201Z,16.57
2018-03-01T16:39:26.766Z,15.10
2018-03-01T16:41:55.169Z,19.10
2018-03-01T16:44:22.752Z,15.50
2018-03-01T16:46:50.359Z,15.23
2018-03-01T16:49:18.020Z,18.23
2018-03-01T16:51:45.639Z,16.67
2018-03-01T16:54:14.186Z,15.47
2018-03-01T16:56:42.057Z,16.57
2018-03-01T16:59:10.758Z,18.87
2018-03-01T17:01:39.367Z,17.83
2018-03-01T17:04:07.901Z,18.23
2018-03-01T17:06:35.454Z,18.23
2018-03-01T17:09:03.009Z,15.53
2018-03-01T17:11:30.532Z,17.13
2018-03-01T17:13:58.978Z,17.73
2018-03-01T17:16:26.508Z,17.23
2018-03-01T17:18:54.016Z,15.17
2018-03-01T17:21:21.542Z,17.97
2018-03-01T17:23:49.835Z,16.77
2018-03-01T17:26:17.460Z,18.43
2018-03-01T17:28:45.054Z,15.60
2018-03-01T17:31:12.801Z,17.93
2018-03-01T17:33:40.378Z,17.30
2018-03-01T17:36:08.079Z,16.53
2018-03-01T17:38:36.800Z,16.53
2018-03-01T17:41:04.344Z,17.03
2018-03-01T17:43:31.870Z,17.33
2018-03-01T17:45:59.387Z,18.43
2018-03-01T17:48:26.915Z,16.73
2018-03-01T17:50:55.203Z,18.37
2018-03-01T17:53:23.038Z,17.87
2018-03-01T17:55:51.321Z,18.00
2018-03-01T17:58:19.621Z,16.77
2018-03-01T18:00:47.187Z,15.37
2018-03-01T18:03:14.747Z,17.97
2018-03-01T18:05:42.352Z,15.57
2018-03-01T18:08:09.872Z,15.90
2018-03-01T18:10:37.376Z,17.40
2018-03-01T18:13:04.931Z,17.10
2018-03-01T18:15:33.238Z,16.47
2018-03-01T18:18:01.537Z,17.77
2018-03-01T18:20:29.040Z,18.20
2018-03-01T18:22:56.556Z,17.73
2018-03-01T18:25:24.123Z,22.27
2018-03-01T18:27:51.674Z,19.03
2018-03-01T18:30:19.187Z,16.87
2018-03-01T18:32:46.696Z,16.97
2018-03-01T18:35:14.225Z,11.13
2018-03-01T18:37:43.420Z,16.97
2018-03-01T18:40:11.703Z,17.77
2018-03-01T18:42:39.991Z,17.37
2018-03-01T18:45:07.504Z,19.47
2018-03-01T18:47:35.036Z,18.30
2018-03-01T18:50:02.571Z,16.27
2018-03-01T18:52:30.859Z,17.67
2018-03-01T18:54:58.383Z,17.60
2018-03-01T18:57:25.900Z,15.57
2018-03-01T18:59:53.435Z,15.67
2018-03-01T19:02:21.001Z,17.17
2018-03-01T19:04:48.541Z,17.33
2018-03-01T19:07:16.834Z,17.40
2018-03-01T19:09:44.374Z,17.47
2018-03-01T19:12:12.652Z,17.20
2018-03-01T19:14:40.935Z,16.53
2018-03-01T19:17:08.456Z,19.63
2018-03-01T19:19:36.000Z,18.80
2018-03-01T19:22:03.522Z,18.00
2018-03-01T19:24:31.042Z,17.50
2018-03-01T19:26:58.580Z,18.33
2018-03-01T19:29:26.111Z,18.70
2018-03-01T19:31:53.625Z,18.03
2018-03-01T19:34:21.913Z,18.37
2018-03-01T19:36:50.218Z,19.07
2018-03-01T19:39:17.779Z,17.90
2018-03-01T19:41:45.279Z,16.87
2018-03-01T19:44:12.837Z,20.57
2018-03-01T19:46:40.332Z,19.53
2018-03-01T19:49:07.879Z,18.57
2018-03-01T19:51:35.414Z,16.17
2018-03-01T19:54:02.948Z,18.57
2018-03-01T19:56:30.508Z,18.63
2018-03-01T19:58:58.031Z,19.50
2018-03-01T20:01:25.540Z,18.03
2018-03-01T20:03:53.061Z,18.23
2018-03-01T20:06:20.568Z,16.93
2018-03-01T20:08:48.141Z,18.00
2018-03-01T20:11:15.649Z,19.27
2018-03-01T20:13:43.162Z,17.03
2018-03-01T20:16:10.688Z,19.70
2018-03-01T20:18:38.209Z,17.53
2018-03-01T20:21:05.749Z,17.03
2018-03-01T20:23:33.369Z,19.67
2018-03-01T20:26:00.856Z,18.10
2018-03-01T20:28:29.139Z,17.53
2018-03-01T20:30:56.661Z,19.27
2018-03-01T20:33:24.184Z,19.13
2018-03-01T20:35:51.726Z,17.53
2018-03-01T20:38:19.252Z,18.23
2018-03-01T20:40:47.547Z,18.37
2018-03-01T20:43:15.077Z,18.80
2018-03-01T20:45:42.577Z,17.80
2018-03-01T20:48:10.096Z,20.97
2018-03-01T20:50:38.398Z,17.53
2018-03-01T20:53:06.992Z,20.60
2018-03-01T20:55:34.509Z,19.00
2018-03-01T20:58:02.043Z,18.60
2018-03-01T21:00:29.550Z,17.87
2018-03-01T21:02:57.092Z,16.90
2018-03-01T21:05:24.630Z,18.47
2018-03-01T21:07:52.173Z,19.43
2018-03-01T21:10:19.696Z,21.93
2018-03-01T21:12:47.238Z,16.30
2018-03-01T21:15:15.547Z,20.07
2018-03-01T21:17:43.080Z,18.40
2018-03-01T21:20:11.366Z,18.17
2018-03-01T21:22:38.891Z,19.33
2018-03-01T21:25:07.171Z,19.37
2018-03-01T21:27:35.459Z,17.73
2018-03-01T21:30:03.774Z,19.53
2018-03-01T21:32:31.282Z,20.17
2018-03-01T21:34:58.802Z,21.27
2018-03-01T21:37:26.431Z,19.57
2018-03-01T21:39:53.967Z,19.60
2018-03-01T21:42:34.193Z,19.40
2018-03-01T21:45:01.718Z,20.27
2018-03-01T21:47:29.265Z,18.70
2018-03-01T21:49:56.792Z,20.07
2018-03-01T21:52:25.071Z,16.83
2018-03-01T21:54:54.265Z,21.93
2018-03-01T21:57:22.547Z,19.77
2018-03-01T21:59:50.827Z,20.73
2018-03-01T22:02:19.104Z,20.13
2018-03-01T22:04:47.390Z,21.30
2018-03-01T22:07:14.919Z,22.43
2018-03-01T22:09:43.205Z,19.47
2018-03-01T22:12:11.503Z,20.13
2018-03-01T22:14:39.015Z,19.43
2018-03-01T22:17:06.549Z,18.23
2018-03-01T22:19:34.090Z,20.73
2018-03-01T22:22:01.731Z,19.80
2018-03-01T22:24:30.012Z,20.43
2018-03-01T22:26:57.539Z,18.87
2018-03-01T22:29:25.053Z,20.40
2018-03-01T22:31:52.567Z,21.10
2018-03-01T22:34:20.865Z,19.93
2018-03-01T22:36:48.364Z,22.27
2018-03-01T22:39:16.634Z,20.23
2018-03-01T22:41:44.176Z,22.47
2018-03-01T22:44:11.675Z,21.63
2018-03-01T22:46:39.182Z,21.53
2018-03-01T22:49:07.043Z,21.87
2018-03-01T22:51:34.552Z,20.87
2018-03-01T22:54:02.092Z,21.30
2018-03-01T22:56:29.628Z,22.07
2018-03-01T22:58:57.132Z,20.90
2018-03-01T23:01:24.652Z,20.53
2018-03-01T23:03:52.176Z,20.93
2018-03-01T23:06:20.468Z,21.43
2018-03-01T23:08:48.000Z,22.10
2018-03-01T23:11:16.318Z,21.10
2018-03-01T23:13:43.812Z,19.10
2018-03-01T23:16:11.342Z,22.43
2018-03-01T23:18:38.872Z,20.17
2018-03-01T23:21:06.392Z,19.83
2018-03-01T23:23:33.889Z,22.37
2018-03-01T23:26:01.441Z,21.63
2018-03-01T23:28:29.715Z,19.43
2018-03-01T23:30:57.226Z,21.30
2018-03-01T23:33:24.735Z,21.13
2018-03-01T23:35:53.007Z,18.77
2018-03-01T23:38:21.291Z,20.13
2018-03-01T23:40:48.859Z,20.43
2018-03-01T23:43:16.368Z,20.50
2018-03-01T23:45:43.900Z,19.23
2018-03-01T23:48:11.420Z,17.53
2018-03-01T23:50:39.704Z,19.00
2018-03-01T23:53:07.555Z,21.37
2018-03-01T23:55:35.828Z,22.70
2018-03-01T23:58:04.111Z,20.27
